Anzali, Iran

9:35 AM IRST on October 25, 2014 (GMT +0330)
Rasht | Change Station
CLOSE
Current Station
Airport
Location: Rasht,
Elevation: -30 ft
Nearby Weather Stations

Elev -30 ft 37.33 °N, 49.61 °E | Updated 5 minutes ago

Mostly Cloudy
Mostly Cloudy
64 °F
Feels Like 64 °F
N
0
Wind Variable Wind from North

Today
High -- | Low -- °F
--% Chance of Precip.
Yesterday
High -- | Low -- °F
Precip. -- in
6:29 AM 5:22 PM
New Moon, 2% visible
Pressure 30.01 in
Visibility 4.3 miles
Clouds Few 1500 ft
Scattered Clouds 2000 ft
Mostly Cloudy 8000 ft
Dew Point 59 °F
Humidity 83%
Rainfall 0.00 in
Snow Depth Not available.
UV 1 out of 12
Pollen Not available.
Air Quality Not available.
Flu Activity Not available.
METAR OIGG 250600Z 00000KT 7000 FEW015 SCT020 BKN080 18/15 Q1016

More Conditions Fewer Conditions

Pressure 30.01 in
Visibility 4.3 miles
Clouds Few 1500 ft
Scattered Clouds 2000 ft
Mostly Cloudy 8000 ft
Dew Point 59 °F
Humidity 83%
Rainfall 0.00 in
Snow Depth Not available.
UV 1 out of 12
Pollen Not available.
Air Quality Not available.
Flu Activity Not available.
METAR OIGG 250600Z 00000KT 7000 FEW015 SCT020 BKN080 18/15 Q1016

More Conditions Fewer Conditions

10-Day Weather Forecast

Almanac

Astronomy

Oct. 25, 2014 Rise Set
Actual Time 6:29 AM IRST 5:22 PM IRST
Civil Twilight 6:02 AM IRST 5:49 PM IRST
Nautical Twilight 5:32 AM IRST 6:19 PM IRST
Astronomical Twilight 5:01 AM IRST 6:49 PM IRST
Moon 7:44 AM IRST 6:29 PM IRST
Length of Visible Light 11h 46m
Length of Day
10h 52m
Tomorrow will be 2m 13s shorter.
New Moon, 2% of the Moon is Illuminated
Today
New Moon
Oct 30
First Quarter
Nov 6
Full
Nov 14
Last Quarter
Nov 22
New

Yesterday's Extremes

Country Highs Country Lows

Community

WunderPhotos

Upload Photos

1,764,785 photos uploaded!

Nearby

Snow Depth

Not available.

Earthquake Activity

City Distance Mag. Time & Date
No recent earthquake activity has been reported nearby.
Minimum magnitude displayed is 2.5.

Coastal Water Temperatures

Place Temperature
No Stations Reporting

Nearby Weather Stations